createdAt,value
2023-03-19T00:00:37.509Z,0.37
2023-03-19T00:03:05.965Z,0.30
2023-03-19T00:05:34.572Z,0.30
2023-03-19T00:08:03.121Z,0.33
2023-03-19T00:10:32.796Z,0.30
2023-03-19T00:13:01.134Z,0.50
2023-03-19T00:15:29.405Z,0.47
2023-03-19T00:17:57.925Z,0.40
2023-03-19T00:20:26.205Z,0.33
2023-03-19T00:22:54.458Z,0.60
2023-03-19T00:25:22.893Z,0.40
2023-03-19T00:27:52.878Z,0.40
2023-03-19T00:30:21.560Z,0.50
2023-03-19T00:32:49.999Z,0.40
2023-03-19T00:35:18.568Z,0.30
2023-03-19T00:37:47.153Z,0.40
2023-03-19T00:40:15.617Z,0.50
2023-03-19T00:42:44.931Z,0.40
2023-03-19T00:45:15.122Z,0.40
2023-03-19T00:47:43.872Z,0.30
2023-03-19T00:50:12.816Z,0.40
2023-03-19T00:52:41.287Z,0.30
2023-03-19T00:55:10.169Z,0.50
2023-03-19T00:57:38.464Z,0.50
2023-03-19T01:00:08.716Z,0.40
2023-03-19T01:02:38.352Z,0.40
2023-03-19T01:05:08.135Z,0.40
2023-03-19T01:07:36.701Z,0.43
2023-03-19T01:10:06.163Z,0.40
2023-03-19T01:12:35.232Z,0.50
2023-03-19T01:15:04.535Z,0.40
2023-03-19T01:17:32.797Z,0.40
2023-03-19T01:20:02.602Z,0.40
2023-03-19T01:22:30.934Z,0.40
2023-03-19T01:24:59.349Z,0.40
2023-03-19T01:27:27.692Z,0.40
2023-03-19T01:29:56.341Z,0.47
2023-03-19T01:32:24.622Z,0.40
2023-03-19T01:34:53.674Z,0.40
2023-03-19T01:37:23.261Z,0.40
2023-03-19T01:39:51.640Z,0.43
2023-03-19T01:42:19.968Z,0.43
2023-03-19T01:44:49.304Z,0.40
2023-03-19T01:47:20.778Z,0.47
2023-03-19T01:49:56.330Z,0.33
2023-03-19T01:52:29.045Z,0.30
2023-03-19T01:54:58.557Z,0.30
2023-03-19T01:57:27.157Z,0.40
2023-03-19T01:59:57.577Z,0.40
2023-03-19T02:02:31.323Z,0.57
2023-03-19T02:05:02.831Z,0.40
2023-03-19T02:07:35.205Z,0.50
2023-03-19T02:10:07.304Z,0.43
2023-03-19T02:12:35.804Z,0.30
2023-03-19T02:15:04.152Z,0.40
2023-03-19T02:17:36.085Z,0.40
2023-03-19T02:20:14.824Z,0.47
2023-03-19T02:22:53.064Z,0.50
2023-03-19T02:25:27.904Z,0.33
2023-03-19T02:27:58.033Z,0.40
2023-03-19T02:30:29.037Z,0.30
2023-03-19T02:32:57.358Z,0.50
2023-03-19T02:35:26.355Z,0.40
2023-03-19T02:37:54.804Z,0.40
2023-03-19T02:40:27.023Z,0.30
2023-03-19T02:42:55.319Z,0.37
2023-03-19T02:45:29.363Z,0.40
2023-03-19T02:47:57.822Z,0.50
2023-03-19T02:50:26.162Z,0.60
2023-03-19T02:52:54.674Z,0.57
2023-03-19T02:55:23.112Z,0.53
2023-03-19T02:57:51.648Z,0.50
2023-03-19T03:00:20.949Z,0.30
2023-03-19T03:02:50.848Z,0.50
2023-03-19T03:05:19.397Z,0.37
2023-03-19T03:07:47.790Z,0.60
2023-03-19T03:10:16.259Z,0.40
2023-03-19T03:12:44.780Z,0.60
2023-03-19T03:15:13.326Z,0.37
2023-03-19T03:17:42.250Z,0.40
2023-03-19T03:20:14.895Z,0.40
2023-03-19T03:22:43.331Z,0.30
2023-03-19T03:25:12.635Z,0.40
2023-03-19T03:27:41.422Z,0.50
2023-03-19T03:30:12.104Z,0.60
2023-03-19T03:32:41.504Z,0.40
2023-03-19T03:35:12.246Z,0.40
2023-03-19T03:37:40.838Z,0.30
2023-03-19T03:40:10.693Z,0.40
2023-03-19T03:42:39.177Z,0.37
2023-03-19T03:45:09.653Z,0.40
2023-03-19T03:47:39.567Z,0.40
2023-03-19T03:50:10.928Z,0.37
2023-03-19T03:52:41.077Z,0.30
2023-03-19T03:55:10.531Z,0.40
2023-03-19T03:57:38.933Z,0.40
2023-03-19T04:00:08.376Z,0.40
2023-03-19T04:02:37.108Z,0.50
2023-03-19T04:05:06.665Z,0.30
2023-03-19T04:07:34.985Z,0.40
2023-03-19T04:10:05.846Z,0.40
2023-03-19T04:12:35.419Z,0.30
2023-03-19T04:15:04.171Z,0.30
2023-03-19T04:17:33.955Z,0.30
2023-03-19T04:20:02.366Z,0.30
2023-03-19T04:22:30.874Z,0.50
2023-03-19T04:24:59.375Z,0.40
2023-03-19T04:27:29.112Z,0.30
2023-03-19T04:29:57.800Z,0.30
2023-03-19T04:32:29.049Z,0.20
2023-03-19T04:34:58.573Z,0.50
2023-03-19T04:37:27.493Z,0.30
2023-03-19T04:39:56.357Z,0.40
2023-03-19T04:42:24.920Z,0.40
2023-03-19T04:44:54.961Z,0.50
2023-03-19T04:47:23.398Z,0.40
2023-03-19T04:49:51.828Z,0.37
2023-03-19T04:52:20.219Z,0.40
2023-03-19T04:54:48.823Z,0.40
2023-03-19T04:57:17.247Z,0.37
2023-03-19T04:59:45.532Z,0.40
2023-03-19T05:02:15.646Z,0.50
2023-03-19T05:04:44.232Z,0.50
2023-03-19T05:07:12.701Z,0.30
2023-03-19T05:09:42.283Z,0.30
2023-03-19T05:12:11.781Z,0.50
2023-03-19T05:14:40.332Z,0.40
2023-03-19T05:17:08.727Z,0.50
2023-03-19T05:19:39.511Z,0.50
2023-03-19T05:22:07.904Z,0.50
2023-03-19T05:24:36.370Z,0.30
2023-03-19T05:27:04.890Z,0.50
2023-03-19T05:29:33.368Z,0.40
2023-03-19T05:32:03.274Z,0.40
2023-03-19T05:34:31.704Z,0.50
2023-03-19T05:37:01.360Z,0.50
2023-03-19T05:39:29.858Z,0.60
2023-03-19T05:41:58.282Z,0.57
2023-03-19T05:44:26.822Z,0.40
2023-03-19T05:46:55.048Z,0.40
2023-03-19T05:49:23.560Z,0.50
2023-03-19T05:51:51.905Z,0.40
2023-03-19T05:54:21.923Z,0.37
2023-03-19T05:56:50.180Z,0.40
2023-03-19T05:59:18.629Z,0.47
2023-03-19T06:01:47.031Z,0.40
2023-03-19T06:04:15.573Z,0.33
2023-03-19T06:06:43.979Z,0.40
2023-03-19T06:09:12.205Z,0.30
2023-03-19T06:11:42.993Z,0.40
2023-03-19T06:14:11.637Z,0.40
2023-03-19T06:16:40.088Z,0.40
2023-03-19T06:19:08.726Z,0.30
2023-03-19T06:21:37.280Z,0.40
2023-03-19T06:24:06.588Z,0.40
2023-03-19T06:26:35.048Z,0.50
2023-03-19T06:29:05.021Z,0.40
2023-03-19T06:31:33.603Z,0.40
2023-03-19T06:34:02.030Z,0.30
2023-03-19T06:36:30.624Z,0.30
2023-03-19T06:38:59.063Z,0.33
2023-03-19T06:41:27.443Z,0.30
2023-03-19T06:43:56.215Z,0.30
2023-03-19T06:46:25.953Z,0.37
2023-03-19T06:48:54.296Z,0.33
2023-03-19T06:51:22.736Z,0.30
2023-03-19T06:53:50.988Z,0.40
2023-03-19T06:56:19.426Z,0.30
2023-03-19T06:58:47.831Z,0.30
2023-03-19T07:01:16.607Z,0.30
2023-03-19T07:03:46.432Z,0.30
2023-03-19T07:06:14.707Z,0.20
2023-03-19T07:08:46.296Z,0.20
2023-03-19T07:11:16.585Z,0.33
2023-03-19T07:13:44.850Z,0.20
2023-03-19T07:16:13.095Z,0.40
2023-03-19T07:18:41.361Z,0.37
2023-03-19T07:21:11.171Z,0.30
2023-03-19T07:23:39.434Z,0.40
2023-03-19T07:26:07.666Z,0.40
2023-03-19T07:28:36.211Z,0.20
2023-03-19T07:31:04.634Z,0.30
2023-03-19T07:33:33.459Z,0.30
2023-03-19T07:36:02.194Z,0.30
2023-03-19T07:38:32.135Z,0.23
2023-03-19T07:41:02.613Z,0.20
2023-03-19T07:43:31.708Z,0.30
2023-03-19T07:46:01.013Z,0.30
2023-03-19T07:48:29.560Z,0.33
2023-03-19T07:50:58.045Z,0.40
2023-03-19T07:53:26.540Z,0.30
2023-03-19T07:55:56.490Z,0.30
2023-03-19T07:58:25.240Z,0.30
2023-03-19T08:00:54.914Z,0.30
2023-03-19T08:03:23.316Z,0.30
2023-03-19T08:05:52.455Z,0.33
2023-03-19T08:08:20.932Z,0.30
2023-03-19T08:10:50.949Z,0.30
2023-03-19T08:13:20.798Z,0.20
2023-03-19T08:15:50.198Z,0.30
2023-03-19T08:18:18.773Z,0.30
2023-03-19T08:20:47.559Z,0.30
2023-03-19T08:23:16.255Z,0.30
2023-03-19T08:25:44.879Z,0.20
2023-03-19T08:28:13.483Z,0.30
2023-03-19T08:30:43.303Z,0.30
2023-03-19T08:33:11.992Z,0.30
2023-03-19T08:35:40.837Z,0.20
2023-03-19T08:38:09.242Z,0.30
2023-03-19T08:40:37.825Z,0.30
2023-03-19T08:43:06.919Z,0.20
2023-03-19T08:45:35.419Z,0.20
2023-03-19T08:48:05.736Z,0.23
2023-03-19T08:50:34.267Z,0.30
2023-03-19T08:53:02.919Z,0.30
2023-03-19T08:55:31.452Z,0.30
2023-03-19T08:57:59.897Z,0.20
2023-03-19T09:00:28.423Z,0.27
2023-03-19T09:02:56.744Z,0.20
2023-03-19T09:05:29.323Z,0.30
2023-03-19T09:07:58.132Z,0.30
2023-03-19T09:10:26.632Z,0.30
2023-03-19T09:12:54.857Z,0.20
2023-03-19T09:15:23.120Z,0.20
2023-03-19T09:17:51.736Z,0.20
2023-03-19T09:20:21.986Z,0.30
2023-03-19T09:22:52.619Z,0.20
2023-03-19T09:25:21.089Z,0.20
2023-03-19T09:27:49.522Z,0.30
2023-03-19T09:30:18.079Z,0.20
2023-03-19T09:32:46.711Z,0.20
2023-03-19T09:35:15.996Z,0.30
2023-03-19T09:37:44.437Z,0.20
2023-03-19T09:40:23.928Z,0.20
2023-03-19T09:43:07.725Z,0.20
2023-03-19T09:45:36.495Z,0.20
2023-03-19T09:48:08.923Z,0.20
2023-03-19T09:50:38.257Z,0.20
2023-03-19T09:53:14.153Z,0.30
2023-03-19T09:55:46.799Z,0.20
2023-03-19T09:58:17.612Z,0.20
2023-03-19T10:00:50.099Z,0.30
2023-03-19T10:03:42.797Z,0.30
2023-03-19T10:06:31.927Z,0.20
2023-03-19T10:09:28.865Z,0.20
2023-03-19T10:12:10.331Z,0.20
2023-03-19T10:15:05.168Z,0.20
2023-03-19T10:17:38.954Z,0.20
2023-03-19T10:20:11.247Z,0.20
2023-03-19T10:22:43.984Z,0.30
2023-03-19T10:25:18.699Z,0.30
2023-03-19T10:27:55.540Z,0.20
2023-03-19T10:30:24.094Z,0.20
2023-03-19T10:33:00.592Z,0.20
2023-03-19T10:35:39.121Z,0.20
2023-03-19T10:38:20.708Z,0.20
2023-03-19T10:40:59.685Z,0.20
2023-03-19T10:43:30.070Z,0.20
2023-03-19T10:45:59.091Z,0.20
2023-03-19T10:48:29.348Z,0.20
2023-03-19T10:51:00.985Z,0.20
2023-03-19T10:53:57.467Z,0.20
2023-03-19T10:56:29.604Z,0.20
2023-03-19T10:59:01.909Z,0.20
2023-03-19T11:01:34.701Z,0.20
2023-03-19T11:04:12.614Z,0.13
2023-03-19T11:06:41.328Z,0.30
2023-03-19T11:09:19.929Z,0.20
2023-03-19T11:11:50.956Z,0.20
2023-03-19T11:14:23.139Z,0.20
2023-03-19T11:16:57.254Z,0.20
2023-03-19T11:19:28.175Z,0.20
2023-03-19T11:22:08.886Z,0.20
2023-03-19T11:24:39.159Z,0.20
2023-03-19T11:27:08.717Z,0.30
2023-03-19T11:29:42.426Z,0.30
2023-03-19T11:32:25.953Z,0.20
2023-03-19T11:34:59.109Z,0.20
2023-03-19T11:37:34.596Z,0.20
2023-03-19T11:40:13.940Z,0.20
2023-03-19T11:42:59.117Z,0.17
2023-03-19T11:45:34.983Z,0.20
2023-03-19T11:48:28.939Z,0.20
2023-03-19T11:51:05.803Z,0.13
2023-03-19T11:53:39.784Z,0.20
2023-03-19T11:56:19.841Z,0.20
2023-03-19T11:59:10.415Z,0.20
2023-03-19T12:02:03.350Z,0.20
2023-03-19T12:04:44.233Z,0.20
2023-03-19T12:07:22.112Z,0.20
2023-03-19T12:10:00.184Z,0.17
2023-03-19T12:12:35.745Z,0.20
2023-03-19T12:15:17.430Z,0.20
2023-03-19T12:17:59.699Z,0.20
2023-03-19T12:20:41.211Z,0.20
2023-03-19T12:23:20.753Z,0.20
2023-03-19T12:26:05.120Z,0.27
2023-03-19T12:28:36.672Z,0.20
2023-03-19T12:31:29.726Z,0.20
2023-03-19T12:34:15.024Z,0.20
2023-03-19T12:36:51.352Z,0.20
2023-03-19T12:39:25.409Z,0.20
2023-03-19T12:41:59.162Z,0.20
2023-03-19T12:44:32.140Z,0.20
2023-03-19T12:47:04.587Z,0.20
2023-03-19T12:49:38.920Z,0.20
2023-03-19T12:52:14.890Z,0.20
2023-03-19T12:54:47.615Z,0.20
2023-03-19T12:57:21.291Z,0.20
2023-03-19T12:59:56.515Z,0.20
2023-03-19T13:02:31.043Z,0.20
2023-03-19T13:06:11.492Z,0.17
2023-03-19T13:09:09.793Z,0.20
2023-03-19T13:11:45.328Z,0.20
2023-03-19T13:14:21.545Z,0.20
2023-03-19T13:16:56.689Z,0.20
2023-03-19T13:19:32.938Z,0.20
2023-03-19T13:22:07.633Z,0.20
2023-03-19T13:24:38.717Z,0.20
2023-03-19T13:27:11.888Z,0.17
2023-03-19T13:30:00.815Z,0.20
2023-03-19T13:32:38.785Z,0.20
2023-03-19T13:35:38.951Z,0.20
2023-03-19T13:38:19.712Z,0.20
2023-03-19T13:40:51.039Z,0.20
2023-03-19T13:43:43.182Z,0.20
2023-03-19T13:46:47.088Z,0.20
2023-03-19T13:49:34.150Z,0.10
2023-03-19T13:52:48.240Z,0.10
2023-03-19T13:55:47.631Z,0.20
2023-03-19T13:58:34.490Z,0.20
2023-03-19T14:01:03.289Z,0.13
2023-03-19T14:03:33.944Z,0.20
2023-03-19T14:06:02.913Z,0.20
2023-03-19T14:08:35.625Z,0.10
2023-03-19T14:11:07.702Z,0.20
2023-03-19T14:13:41.322Z,0.20
2023-03-19T14:16:18.142Z,0.10
2023-03-19T14:18:46.828Z,0.20
2023-03-19T14:21:21.831Z,0.17
2023-03-19T14:23:57.725Z,0.17
2023-03-19T14:26:30.125Z,0.20
2023-03-19T14:29:03.758Z,0.10
2023-03-19T14:31:48.779Z,0.10
2023-03-19T14:34:26.026Z,0.20
2023-03-19T14:37:00.408Z,0.20
2023-03-19T14:39:32.878Z,0.10
2023-03-19T14:42:08.681Z,0.20
2023-03-19T14:45:18.608Z,0.13
2023-03-19T14:48:21.154Z,0.10
2023-03-19T14:51:14.458Z,0.10
2023-03-19T14:53:45.726Z,0.10
2023-03-19T14:56:17.444Z,0.20
2023-03-19T14:58:55.646Z,0.20
2023-03-19T15:01:27.060Z,0.20
2023-03-19T15:03:58.234Z,0.20
2023-03-19T15:06:27.812Z,0.20
2023-03-19T15:09:00.969Z,0.20
2023-03-19T15:12:01.620Z,0.20
2023-03-19T15:14:46.990Z,0.20
2023-03-19T15:17:22.791Z,0.20
2023-03-19T15:19:52.860Z,0.30
2023-03-19T15:22:24.052Z,0.20
2023-03-19T15:24:52.993Z,0.20
2023-03-19T15:27:23.544Z,0.20
2023-03-19T15:30:03.183Z,0.20
2023-03-19T15:32:56.326Z,0.20
2023-03-19T15:35:34.071Z,0.20
2023-03-19T15:38:08.258Z,0.20
2023-03-19T15:40:38.262Z,0.20
2023-03-19T15:43:14.617Z,0.20
2023-03-19T15:45:51.438Z,0.20
2023-03-19T15:48:23.664Z,0.20
2023-03-19T15:50:57.013Z,0.30
2023-03-19T15:53:29.975Z,0.30
2023-03-19T15:56:01.675Z,0.30
2023-03-19T15:58:32.693Z,0.20
2023-03-19T16:01:03.719Z,0.20
2023-03-19T16:03:39.168Z,0.20
2023-03-19T16:06:14.036Z,0.20
2023-03-19T16:08:49.576Z,0.13
2023-03-19T16:11:30.040Z,0.20
2023-03-19T16:14:01.093Z,0.20
2023-03-19T16:16:34.877Z,0.20
2023-03-19T16:19:04.342Z,0.20
2023-03-19T16:21:38.083Z,0.27
2023-03-19T16:24:16.036Z,0.30
2023-03-19T16:26:45.762Z,0.20
2023-03-19T16:29:23.929Z,0.20
2023-03-19T16:31:55.449Z,0.20
2023-03-19T16:34:33.133Z,0.20
2023-03-19T16:37:03.429Z,0.20
2023-03-19T16:39:37.941Z,0.20
2023-03-19T16:42:27.569Z,0.20
2023-03-19T16:44:56.566Z,0.20
2023-03-19T16:47:28.125Z,0.30
2023-03-19T16:50:03.902Z,0.20
2023-03-19T16:52:37.689Z,0.20
2023-03-19T16:55:14.004Z,0.20
2023-03-19T16:57:45.269Z,0.20
2023-03-19T17:00:15.817Z,0.30
2023-03-19T17:02:46.376Z,0.20
2023-03-19T17:05:16.134Z,0.30
2023-03-19T17:07:45.020Z,0.20
2023-03-19T17:10:15.893Z,0.20
2023-03-19T17:12:49.640Z,0.20
2023-03-19T17:15:25.713Z,0.20
2023-03-19T17:17:57.366Z,0.20
2023-03-19T17:20:33.280Z,0.20
2023-03-19T17:23:01.852Z,0.20
2023-03-19T17:25:30.401Z,0.20
2023-03-19T17:27:59.298Z,0.30
2023-03-19T17:30:28.894Z,0.20
2023-03-19T17:32:59.305Z,0.20
2023-03-19T17:35:28.332Z,0.20
2023-03-19T17:37:57.107Z,0.20
2023-03-19T17:40:28.103Z,0.20
2023-03-19T17:42:57.514Z,0.20
2023-03-19T17:45:29.988Z,0.20
2023-03-19T17:48:00.427Z,0.20
2023-03-19T17:50:31.709Z,0.20
2023-03-19T17:53:01.181Z,0.20
2023-03-19T17:55:31.335Z,0.30
2023-03-19T17:58:00.275Z,0.20
2023-03-19T18:00:29.192Z,0.30
2023-03-19T18:02:59.320Z,0.30
2023-03-19T18:05:28.223Z,0.30
2023-03-19T18:07:58.163Z,0.20
2023-03-19T18:10:30.414Z,0.20
2023-03-19T18:13:00.530Z,0.20
2023-03-19T18:15:31.737Z,0.20
2023-03-19T18:18:03.520Z,0.20
2023-03-19T18:20:37.484Z,0.20
2023-03-19T18:23:07.156Z,0.20
2023-03-19T18:25:36.525Z,0.20
2023-03-19T18:28:06.242Z,0.30
2023-03-19T18:30:37.473Z,0.30
2023-03-19T18:33:10.182Z,0.30
2023-03-19T18:35:41.582Z,0.20
2023-03-19T18:38:16.607Z,0.30
2023-03-19T18:40:45.685Z,0.30
2023-03-19T18:43:16.197Z,0.23
2023-03-19T18:45:46.849Z,0.20
2023-03-19T18:48:24.554Z,0.30
2023-03-19T18:50:53.642Z,0.30
2023-03-19T18:53:22.430Z,0.30
2023-03-19T18:55:51.738Z,0.20
2023-03-19T18:58:22.720Z,0.30
2023-03-19T19:00:52.571Z,0.20
2023-03-19T19:03:29.897Z,0.20
2023-03-19T19:05:58.818Z,0.20
2023-03-19T19:08:29.605Z,0.20
2023-03-19T19:11:03.557Z,0.30
2023-03-19T19:13:46.298Z,0.30
2023-03-19T19:16:24.482Z,0.20
2023-03-19T19:18:54.564Z,0.30
2023-03-19T19:21:23.180Z,0.20
2023-03-19T19:23:52.243Z,0.20
2023-03-19T19:26:25.461Z,0.20
2023-03-19T19:28:56.707Z,0.30
2023-03-19T19:31:27.100Z,0.30
2023-03-19T19:33:57.637Z,0.20
2023-03-19T19:36:27.864Z,0.20
2023-03-19T19:38:56.546Z,0.20
2023-03-19T19:41:26.664Z,0.20
2023-03-19T19:43:57.428Z,0.20
2023-03-19T19:46:25.922Z,0.27
2023-03-19T19:48:56.188Z,0.20
2023-03-19T19:51:26.292Z,0.23
2023-03-19T19:53:55.936Z,0.30
2023-03-19T19:56:26.901Z,0.30
2023-03-19T19:58:57.455Z,0.30
2023-03-19T20:01:27.405Z,0.30
2023-03-19T20:04:11.669Z,0.30
2023-03-19T20:06:39.927Z,0.30
2023-03-19T20:09:08.699Z,0.22
2023-03-19T20:11:37.492Z,0.30
2023-03-19T20:14:05.984Z,0.30
2023-03-19T20:16:34.526Z,0.27
2023-03-19T20:19:04.756Z,0.30
2023-03-19T20:21:33.241Z,0.20
2023-03-19T20:24:01.807Z,0.40
2023-03-19T20:26:32.288Z,0.20
2023-03-19T20:29:01.046Z,0.20
2023-03-19T20:31:31.357Z,0.30
2023-03-19T20:34:00.366Z,0.20
2023-03-19T20:36:30.436Z,0.23
2023-03-19T20:38:58.778Z,0.20
2023-03-19T20:41:28.427Z,0.27
2023-03-19T20:43:57.691Z,0.30
2023-03-19T20:46:26.084Z,0.30
2023-03-19T20:48:54.568Z,0.30
2023-03-19T20:51:26.130Z,0.30
2023-03-19T20:53:55.918Z,0.30
2023-03-19T20:56:25.606Z,0.30
2023-03-19T20:58:54.058Z,0.30
2023-03-19T21:01:22.399Z,0.30
2023-03-19T21:03:50.955Z,0.30
2023-03-19T21:06:22.076Z,0.30
2023-03-19T21:08:53.419Z,0.30
2023-03-19T21:11:25.689Z,0.30
2023-03-19T21:13:55.010Z,0.30
2023-03-19T21:16:25.796Z,0.30
2023-03-19T21:18:55.020Z,0.30
2023-03-19T21:21:31.166Z,0.30
2023-03-19T21:24:03.419Z,0.30
2023-03-19T21:26:38.317Z,0.37
2023-03-19T21:29:09.535Z,0.30
2023-03-19T21:31:38.180Z,0.30
2023-03-19T21:34:07.000Z,0.30
2023-03-19T21:36:35.507Z,0.30
2023-03-19T21:39:04.047Z,0.30
2023-03-19T21:41:36.169Z,0.30
2023-03-19T21:44:07.387Z,0.30
2023-03-19T21:46:36.221Z,0.30
2023-03-19T21:49:04.891Z,0.30
2023-03-19T21:51:33.252Z,0.20
2023-03-19T21:54:02.656Z,0.20
2023-03-19T21:56:34.923Z,0.20
2023-03-19T21:59:05.380Z,0.30
2023-03-19T22:01:33.970Z,0.27
2023-03-19T22:04:02.469Z,0.30
2023-03-19T22:06:30.851Z,0.30
2023-03-19T22:08:59.377Z,0.20
2023-03-19T22:11:30.190Z,0.30
2023-03-19T22:14:05.517Z,0.30
2023-03-19T22:16:34.695Z,0.30
2023-03-19T22:19:03.366Z,0.20
2023-03-19T22:21:32.948Z,0.30
2023-03-19T22:24:01.414Z,0.30
2023-03-19T22:26:32.287Z,0.30
2023-03-19T22:29:03.860Z,0.40
2023-03-19T22:31:33.051Z,0.20
2023-03-19T22:34:01.925Z,0.20
2023-03-19T22:36:30.437Z,0.30
2023-03-19T22:38:58.935Z,0.30
2023-03-19T22:41:30.538Z,0.20
2023-03-19T22:43:59.924Z,0.30
2023-03-19T22:46:30.262Z,0.30
2023-03-19T22:48:58.716Z,0.30
2023-03-19T22:51:28.455Z,0.40
2023-03-19T22:53:57.065Z,0.30
2023-03-19T22:56:25.473Z,0.40
2023-03-19T22:58:54.026Z,0.30
2023-03-19T23:01:32.827Z,0.40
2023-03-19T23:04:22.450Z,0.40
2023-03-19T23:06:51.799Z,0.30
2023-03-19T23:09:22.340Z,0.20
2023-03-19T23:11:50.752Z,0.30
2023-03-19T23:14:29.000Z,0.40
2023-03-19T23:17:03.307Z,0.30
2023-03-19T23:19:34.117Z,0.30
2023-03-19T23:22:05.175Z,0.20
2023-03-19T23:24:33.826Z,0.40
2023-03-19T23:27:03.401Z,0.40
2023-03-19T23:29:35.097Z,0.30
2023-03-19T23:32:06.544Z,0.30
2023-03-19T23:34:42.492Z,0.20
2023-03-19T23:37:18.272Z,0.30
2023-03-19T23:42:43.117Z,0.40
2023-03-19T23:45:18.865Z,0.30
2023-03-19T23:47:48.732Z,0.30
2023-03-19T23:50:17.278Z,0.30
2023-03-19T23:52:45.550Z,0.30
2023-03-19T23:55:14.756Z,0.30
2023-03-19T23:57:43.324Z,0.30
